sensor_id;sensor_type;location;lat;lon;timestamp;P1;durP1;ratioP1;P2;durP2;ratioP2
52274;SDS011;38228;50.940;4.024;2022-08-02T00:02:25;8.52;;;2.10;;
52274;SDS011;38228;50.940;4.024;2022-08-02T00:04:51;7.72;;;2.08;;
52274;SDS011;38228;50.940;4.024;2022-08-02T00:07:16;10.75;;;2.53;;
52274;SDS011;38228;50.940;4.024;2022-08-02T00:09:43;6.47;;;2.13;;
52274;SDS011;38228;50.940;4.024;2022-08-02T00:12:09;5.07;;;2.03;;
52274;SDS011;38228;50.940;4.024;2022-08-02T00:14:35;4.10;;;2.00;;
52274;SDS011;38228;50.940;4.024;2022-08-02T00:17:03;4.97;;;2.00;;
52274;SDS011;38228;50.940;4.024;2022-08-02T00:19:29;12.13;;;2.35;;
52274;SDS011;38228;50.940;4.024;2022-08-02T00:21:55;7.95;;;2.20;;
52274;SDS011;38228;50.940;4.024;2022-08-02T00:24:20;6.78;;;2.30;;
52274;SDS011;38228;50.940;4.024;2022-08-02T00:26:46;5.88;;;2.20;;
52274;SDS011;38228;50.940;4.024;2022-08-02T00:29:11;8.48;;;2.38;;
52274;SDS011;38228;50.940;4.024;2022-08-02T00:31:37;4.13;;;2.08;;
52274;SDS011;38228;50.940;4.024;2022-08-02T00:34:03;6.10;;;2.25;;
52274;SDS011;38228;50.940;4.024;2022-08-02T00:36:29;6.80;;;1.80;;
52274;SDS011;38228;50.940;4.024;2022-08-02T00:38:54;6.13;;;2.30;;
52274;SDS011;38228;50.940;4.024;2022-08-02T00:41:20;7.35;;;2.42;;
52274;SDS011;38228;50.940;4.024;2022-08-02T00:43:47;7.35;;;2.17;;
52274;SDS011;38228;50.940;4.024;2022-08-02T00:46:14;5.30;;;2.25;;
52274;SDS011;38228;50.940;4.024;2022-08-02T00:48:41;8.73;;;2.35;;
52274;SDS011;38228;50.940;4.024;2022-08-02T00:51:07;5.85;;;2.55;;
52274;SDS011;38228;50.940;4.024;2022-08-02T00:53:33;7.00;;;2.40;;
52274;SDS011;38228;50.940;4.024;2022-08-02T00:55:59;8.02;;;2.38;;
52274;SDS011;38228;50.940;4.024;2022-08-02T00:58:25;6.93;;;2.65;;
52274;SDS011;38228;50.940;4.024;2022-08-02T01:00:50;6.20;;;2.55;;
52274;SDS011;38228;50.940;4.024;2022-08-02T01:03:16;7.28;;;2.78;;
52274;SDS011;38228;50.940;4.024;2022-08-02T01:05:42;4.40;;;2.05;;
52274;SDS011;38228;50.940;4.024;2022-08-02T01:08:08;7.28;;;2.42;;
52274;SDS011;38228;50.940;4.024;2022-08-02T01:10:34;6.90;;;2.58;;
52274;SDS011;38228;50.940;4.024;2022-08-02T01:13:00;6.45;;;2.25;;
52274;SDS011;38228;50.940;4.024;2022-08-02T01:15:26;5.28;;;1.98;;
52274;SDS011;38228;50.940;4.024;2022-08-02T01:23:13;6.32;;;2.13;;
52274;SDS011;38228;50.940;4.024;2022-08-02T01:36:48;11.52;;;2.40;;
52274;SDS011;38228;50.940;4.024;2022-08-02T01:39:20;4.37;;;2.33;;
52274;SDS011;38228;50.940;4.024;2022-08-02T01:41:49;7.45;;;2.35;;
52274;SDS011;38228;50.940;4.024;2022-08-02T01:44:17;7.03;;;2.40;;
52274;SDS011;38228;50.940;4.024;2022-08-02T01:46:45;5.13;;;2.45;;
52274;SDS011;38228;50.940;4.024;2022-08-02T01:49:14;6.35;;;2.40;;
52274;SDS011;38228;50.940;4.024;2022-08-02T01:51:43;7.30;;;2.65;;
52274;SDS011;38228;50.940;4.024;2022-08-02T01:54:30;4.45;;;2.70;;
52274;SDS011;38228;50.940;4.024;2022-08-02T01:56:58;4.65;;;2.88;;
52274;SDS011;38228;50.940;4.024;2022-08-02T01:59:28;7.88;;;3.33;;
52274;SDS011;38228;50.940;4.024;2022-08-02T02:01:56;5.32;;;3.20;;
52274;SDS011;38228;50.940;4.024;2022-08-02T02:04:23;5.82;;;3.40;;
52274;SDS011;38228;50.940;4.024;2022-08-02T02:06:52;6.03;;;3.25;;
52274;SDS011;38228;50.940;4.024;2022-08-02T02:09:20;9.10;;;3.13;;
52274;SDS011;38228;50.940;4.024;2022-08-02T02:11:47;7.30;;;3.05;;
52274;SDS011;38228;50.940;4.024;2022-08-02T02:14:13;5.03;;;3.50;;
52274;SDS011;38228;50.940;4.024;2022-08-02T02:16:41;9.57;;;3.45;;
52274;SDS011;38228;50.940;4.024;2022-08-02T02:19:09;5.40;;;3.67;;
52274;SDS011;38228;50.940;4.024;2022-08-02T02:21:38;7.15;;;3.45;;
52274;SDS011;38228;50.940;4.024;2022-08-02T02:24:04;6.88;;;3.67;;
52274;SDS011;38228;50.940;4.024;2022-08-02T02:26:30;7.95;;;3.92;;
52274;SDS011;38228;50.940;4.024;2022-08-02T02:29:00;7.72;;;4.40;;
52274;SDS011;38228;50.940;4.024;2022-08-02T02:31:27;7.38;;;4.10;;
52274;SDS011;38228;50.940;4.024;2022-08-02T02:34:02;7.15;;;4.40;;
52274;SDS011;38228;50.940;4.024;2022-08-02T02:36:34;8.65;;;4.25;;
52274;SDS011;38228;50.940;4.024;2022-08-02T02:39:03;9.43;;;4.45;;
52274;SDS011;38228;50.940;4.024;2022-08-02T02:41:31;6.28;;;4.05;;
52274;SDS011;38228;50.940;4.024;2022-08-02T02:43:58;9.07;;;5.05;;
52274;SDS011;38228;50.940;4.024;2022-08-02T02:46:29;7.45;;;4.53;;
52274;SDS011;38228;50.940;4.024;2022-08-02T02:48:56;10.30;;;4.95;;
52274;SDS011;38228;50.940;4.024;2022-08-02T02:51:23;7.20;;;5.25;;
52274;SDS011;38228;50.940;4.024;2022-08-02T02:53:49;8.57;;;5.40;;
52274;SDS011;38228;50.940;4.024;2022-08-02T02:56:16;11.73;;;5.78;;
52274;SDS011;38228;50.940;4.024;2022-08-02T02:58:44;9.35;;;4.97;;
52274;SDS011;38228;50.940;4.024;2022-08-02T03:01:11;6.35;;;5.00;;
52274;SDS011;38228;50.940;4.024;2022-08-02T03:03:56;8.10;;;5.57;;
52274;SDS011;38228;50.940;4.024;2022-08-02T03:06:25;9.02;;;5.63;;
52274;SDS011;38228;50.940;4.024;2022-08-02T03:08:52;8.35;;;5.75;;
52274;SDS011;38228;50.940;4.024;2022-08-02T03:11:18;8.13;;;5.30;;
52274;SDS011;38228;50.940;4.024;2022-08-02T03:13:44;9.20;;;5.65;;
52274;SDS011;38228;50.940;4.024;2022-08-02T03:16:10;7.40;;;5.28;;
52274;SDS011;38228;50.940;4.024;2022-08-02T03:18:41;9.07;;;5.45;;
52274;SDS011;38228;50.940;4.024;2022-08-02T03:21:10;8.93;;;5.57;;
52274;SDS011;38228;50.940;4.024;2022-08-02T03:23:38;10.75;;;5.97;;
52274;SDS011;38228;50.940;4.024;2022-08-02T03:26:05;8.45;;;5.95;;
52274;SDS011;38228;50.940;4.024;2022-08-02T03:28:31;10.70;;;5.80;;
52274;SDS011;38228;50.940;4.024;2022-08-02T03:30:56;7.93;;;5.55;;
52274;SDS011;38228;50.940;4.024;2022-08-02T03:33:23;6.97;;;5.30;;
52274;SDS011;38228;50.940;4.024;2022-08-02T03:35:50;8.60;;;5.45;;
52274;SDS011;38228;50.940;4.024;2022-08-02T03:38:18;7.65;;;5.57;;
52274;SDS011;38228;50.940;4.024;2022-08-02T03:40:46;9.15;;;5.65;;
52274;SDS011;38228;50.940;4.024;2022-08-02T03:43:13;6.97;;;4.95;;
52274;SDS011;38228;50.940;4.024;2022-08-02T03:45:44;9.85;;;5.47;;
52274;SDS011;38228;50.940;4.024;2022-08-02T03:50:40;7.90;;;5.40;;
52274;SDS011;38228;50.940;4.024;2022-08-02T03:53:07;8.27;;;5.38;;
52274;SDS011;38228;50.940;4.024;2022-08-02T03:55:36;8.15;;;5.32;;
52274;SDS011;38228;50.940;4.024;2022-08-02T03:58:04;8.02;;;4.95;;
52274;SDS011;38228;50.940;4.024;2022-08-02T04:00:30;6.72;;;4.72;;
52274;SDS011;38228;50.940;4.024;2022-08-02T04:02:56;8.57;;;4.80;;
52274;SDS011;38228;50.940;4.024;2022-08-02T04:05:22;6.82;;;4.47;;
52274;SDS011;38228;50.940;4.024;2022-08-02T04:07:48;9.10;;;4.40;;
52274;SDS011;38228;50.940;4.024;2022-08-02T04:10:15;6.68;;;4.47;;
52274;SDS011;38228;50.940;4.024;2022-08-02T04:12:41;6.55;;;4.50;;
52274;SDS011;38228;50.940;4.024;2022-08-02T04:15:07;8.23;;;4.43;;
52274;SDS011;38228;50.940;4.024;2022-08-02T04:17:36;7.65;;;4.75;;
52274;SDS011;38228;50.940;4.024;2022-08-02T04:20:07;7.40;;;4.57;;
52274;SDS011;38228;50.940;4.024;2022-08-02T04:22:54;11.82;;;4.53;;
52274;SDS011;38228;50.940;4.024;2022-08-02T04:25:26;8.05;;;4.70;;
52274;SDS011;38228;50.940;4.024;2022-08-02T04:27:51;7.28;;;4.80;;
52274;SDS011;38228;50.940;4.024;2022-08-02T04:30:18;7.05;;;4.25;;
52274;SDS011;38228;50.940;4.024;2022-08-02T04:32:45;8.20;;;4.82;;
52274;SDS011;38228;50.940;4.024;2022-08-02T04:35:11;8.50;;;4.45;;
52274;SDS011;38228;50.940;4.024;2022-08-02T04:37:37;8.63;;;5.18;;
52274;SDS011;38228;50.940;4.024;2022-08-02T04:40:13;8.55;;;4.53;;
52274;SDS011;38228;50.940;4.024;2022-08-02T04:42:39;9.13;;;5.00;;
52274;SDS011;38228;50.940;4.024;2022-08-02T04:45:06;8.93;;;4.93;;
52274;SDS011;38228;50.940;4.024;2022-08-02T04:47:33;7.07;;;4.57;;
52274;SDS011;38228;50.940;4.024;2022-08-02T04:49:59;7.43;;;5.07;;
52274;SDS011;38228;50.940;4.024;2022-08-02T04:52:25;8.30;;;5.35;;
52274;SDS011;38228;50.940;4.024;2022-08-02T04:54:50;7.97;;;5.03;;
52274;SDS011;38228;50.940;4.024;2022-08-02T04:57:17;9.02;;;5.55;;
52274;SDS011;38228;50.940;4.024;2022-08-02T05:00:05;11.38;;;5.10;;
52274;SDS011;38228;50.940;4.024;2022-08-02T05:02:32;8.02;;;5.43;;
52274;SDS011;38228;50.940;4.024;2022-08-02T05:04:59;11.40;;;5.00;;
52274;SDS011;38228;50.940;4.024;2022-08-02T05:07:24;7.43;;;5.30;;
52274;SDS011;38228;50.940;4.024;2022-08-02T05:09:50;10.30;;;6.03;;
52274;SDS011;38228;50.940;4.024;2022-08-02T05:12:16;8.95;;;5.60;;
52274;SDS011;38228;50.940;4.024;2022-08-02T05:14:41;10.13;;;5.63;;
52274;SDS011;38228;50.940;4.024;2022-08-02T05:17:07;12.88;;;6.38;;
52274;SDS011;38228;50.940;4.024;2022-08-02T05:19:33;8.45;;;5.63;;
52274;SDS011;38228;50.940;4.024;2022-08-02T05:21:58;8.43;;;6.18;;
52274;SDS011;38228;50.940;4.024;2022-08-02T05:24:24;11.18;;;6.35;;
52274;SDS011;38228;50.940;4.024;2022-08-02T05:26:50;13.68;;;7.35;;
52274;SDS011;38228;50.940;4.024;2022-08-02T05:29:16;10.43;;;6.38;;
52274;SDS011;38228;50.940;4.024;2022-08-02T05:31:41;13.73;;;7.13;;
52274;SDS011;38228;50.940;4.024;2022-08-02T05:34:07;13.52;;;6.63;;
52274;SDS011;38228;50.940;4.024;2022-08-02T05:36:33;10.10;;;6.20;;
52274;SDS011;38228;50.940;4.024;2022-08-02T05:38:59;13.88;;;7.05;;
52274;SDS011;38228;50.940;4.024;2022-08-02T05:41:24;9.05;;;6.20;;
52274;SDS011;38228;50.940;4.024;2022-08-02T05:43:50;13.50;;;6.63;;
52274;SDS011;38228;50.940;4.024;2022-08-02T05:46:16;13.40;;;6.68;;
52274;SDS011;38228;50.940;4.024;2022-08-02T05:48:41;12.60;;;7.13;;
52274;SDS011;38228;50.940;4.024;2022-08-02T05:51:12;11.00;;;7.15;;
52274;SDS011;38228;50.940;4.024;2022-08-02T05:54:30;11.63;;;7.05;;
52274;SDS011;38228;50.940;4.024;2022-08-02T05:56:53;12.10;;;6.68;;
52274;SDS011;38228;50.940;4.024;2022-08-02T05:59:25;11.27;;;6.55;;
52274;SDS011;38228;50.940;4.024;2022-08-02T06:02:03;10.43;;;6.05;;
52274;SDS011;38228;50.940;4.024;2022-08-02T06:04:58;9.57;;;5.72;;
52274;SDS011;38228;50.940;4.024;2022-08-02T06:07:27;9.93;;;5.85;;
52274;SDS011;38228;50.940;4.024;2022-08-02T06:09:54;7.72;;;5.15;;
52274;SDS011;38228;50.940;4.024;2022-08-02T06:12:24;9.75;;;5.47;;
52274;SDS011;38228;50.940;4.024;2022-08-02T06:14:55;8.15;;;5.00;;
52274;SDS011;38228;50.940;4.024;2022-08-02T06:17:22;9.65;;;5.80;;
52274;SDS011;38228;50.940;4.024;2022-08-02T06:19:49;12.80;;;5.60;;
52274;SDS011;38228;50.940;4.024;2022-08-02T06:22:18;10.05;;;5.28;;
52274;SDS011;38228;50.940;4.024;2022-08-02T06:24:44;8.63;;;5.47;;
52274;SDS011;38228;50.940;4.024;2022-08-02T06:27:14;13.05;;;6.60;;
52274;SDS011;38228;50.940;4.024;2022-08-02T06:29:41;9.88;;;6.10;;
52274;SDS011;38228;50.940;4.024;2022-08-02T06:32:07;11.18;;;5.60;;
52274;SDS011;38228;50.940;4.024;2022-08-02T06:34:37;11.85;;;6.32;;
52274;SDS011;38228;50.940;4.024;2022-08-02T06:39:53;10.45;;;5.55;;
52274;SDS011;38228;50.940;4.024;2022-08-02T06:43:11;7.75;;;5.60;;
52274;SDS011;38228;50.940;4.024;2022-08-02T06:45:31;11.05;;;6.20;;
52274;SDS011;38228;50.940;4.024;2022-08-02T06:47:58;9.73;;;6.30;;
52274;SDS011;38228;50.940;4.024;2022-08-02T06:50:24;8.57;;;5.95;;
52274;SDS011;38228;50.940;4.024;2022-08-02T06:52:50;9.82;;;5.85;;
52274;SDS011;38228;50.940;4.024;2022-08-02T06:55:15;7.38;;;5.85;;
52274;SDS011;38228;50.940;4.024;2022-08-02T06:57:41;9.95;;;5.60;;
52274;SDS011;38228;50.940;4.024;2022-08-02T07:00:07;11.10;;;5.75;;
52274;SDS011;38228;50.940;4.024;2022-08-02T07:02:37;11.13;;;6.60;;
52274;SDS011;38228;50.940;4.024;2022-08-02T07:05:06;8.63;;;5.85;;
52274;SDS011;38228;50.940;4.024;2022-08-02T07:07:32;9.30;;;5.40;;
52274;SDS011;38228;50.940;4.024;2022-08-02T07:09:59;10.63;;;5.35;;
52274;SDS011;38228;50.940;4.024;2022-08-02T07:12:24;10.93;;;5.82;;
52274;SDS011;38228;50.940;4.024;2022-08-02T07:14:51;12.70;;;5.78;;
52274;SDS011;38228;50.940;4.024;2022-08-02T07:17:17;10.35;;;5.15;;
52274;SDS011;38228;50.940;4.024;2022-08-02T07:19:43;7.93;;;4.88;;
52274;SDS011;38228;50.940;4.024;2022-08-02T07:22:08;8.30;;;4.95;;
52274;SDS011;38228;50.940;4.024;2022-08-02T07:24:36;8.05;;;4.70;;
52274;SDS011;38228;50.940;4.024;2022-08-02T07:27:03;11.30;;;4.93;;
52274;SDS011;38228;50.940;4.024;2022-08-02T07:29:28;9.75;;;4.97;;
52274;SDS011;38228;50.940;4.024;2022-08-02T07:31:54;9.63;;;5.20;;
52274;SDS011;38228;50.940;4.024;2022-08-02T07:34:20;7.50;;;4.63;;
52274;SDS011;38228;50.940;4.024;2022-08-02T07:36:46;9.90;;;5.32;;
52274;SDS011;38228;50.940;4.024;2022-08-02T07:39:11;8.57;;;5.00;;
52274;SDS011;38228;50.940;4.024;2022-08-02T07:41:37;9.15;;;4.43;;
52274;SDS011;38228;50.940;4.024;2022-08-02T07:44:03;10.35;;;4.10;;
52274;SDS011;38228;50.940;4.024;2022-08-02T07:46:29;7.35;;;4.22;;
52274;SDS011;38228;50.940;4.024;2022-08-02T07:48:57;9.07;;;3.95;;
52274;SDS011;38228;50.940;4.024;2022-08-02T07:51:23;7.97;;;4.00;;
52274;SDS011;38228;50.940;4.024;2022-08-02T07:53:48;4.90;;;3.40;;
52274;SDS011;38228;50.940;4.024;2022-08-02T07:56:14;6.85;;;3.83;;
52274;SDS011;38228;50.940;4.024;2022-08-02T07:58:40;6.82;;;3.42;;
52274;SDS011;38228;50.940;4.024;2022-08-02T08:01:07;5.20;;;3.05;;
52274;SDS011;38228;50.940;4.024;2022-08-02T08:03:33;9.73;;;3.00;;
52274;SDS011;38228;50.940;4.024;2022-08-02T08:05:58;8.77;;;3.00;;
52274;SDS011;38228;50.940;4.024;2022-08-02T08:08:24;6.03;;;2.08;;
52274;SDS011;38228;50.940;4.024;2022-08-02T08:10:50;5.80;;;2.45;;
52274;SDS011;38228;50.940;4.024;2022-08-02T08:13:16;4.10;;;2.40;;
52274;SDS011;38228;50.940;4.024;2022-08-02T08:15:42;6.38;;;2.20;;
52274;SDS011;38228;50.940;4.024;2022-08-02T08:18:08;3.00;;;2.03;;
52274;SDS011;38228;50.940;4.024;2022-08-02T08:20:34;4.22;;;1.70;;
52274;SDS011;38228;50.940;4.024;2022-08-02T08:22:59;4.47;;;1.80;;
52274;SDS011;38228;50.940;4.024;2022-08-02T08:25:25;4.07;;;1.65;;
52274;SDS011;38228;50.940;4.024;2022-08-02T08:27:51;4.05;;;1.45;;
52274;SDS011;38228;50.940;4.024;2022-08-02T08:30:17;3.13;;;1.65;;
52274;SDS011;38228;50.940;4.024;2022-08-02T08:32:44;4.50;;;1.50;;
52274;SDS011;38228;50.940;4.024;2022-08-02T08:35:10;3.47;;;1.75;;
52274;SDS011;38228;50.940;4.024;2022-08-02T08:37:36;6.00;;;1.88;;
52274;SDS011;38228;50.940;4.024;2022-08-02T08:40:06;5.75;;;1.70;;
52274;SDS011;38228;50.940;4.024;2022-08-02T08:42:34;4.80;;;1.60;;
52274;SDS011;38228;50.940;4.024;2022-08-02T08:45:01;3.50;;;1.42;;
52274;SDS011;38228;50.940;4.024;2022-08-02T08:47:28;4.30;;;1.63;;
52274;SDS011;38228;50.940;4.024;2022-08-02T08:49:58;3.15;;;1.70;;
52274;SDS011;38228;50.940;4.024;2022-08-02T08:52:31;2.63;;;1.60;;
52274;SDS011;38228;50.940;4.024;2022-08-02T08:55:00;3.28;;;1.60;;
52274;SDS011;38228;50.940;4.024;2022-08-02T08:57:28;4.30;;;1.52;;
52274;SDS011;38228;50.940;4.024;2022-08-02T08:59:56;3.35;;;1.40;;
52274;SDS011;38228;50.940;4.024;2022-08-02T09:02:22;3.83;;;1.45;;
52274;SDS011;38228;50.940;4.024;2022-08-02T09:04:48;2.78;;;1.55;;
52274;SDS011;38228;50.940;4.024;2022-08-02T09:07:14;3.38;;;1.63;;
52274;SDS011;38228;50.940;4.024;2022-08-02T09:09:40;6.43;;;1.50;;
52274;SDS011;38228;50.940;4.024;2022-08-02T09:12:15;3.90;;;1.80;;
52274;SDS011;38228;50.940;4.024;2022-08-02T09:14:46;6.10;;;1.60;;
52274;SDS011;38228;50.940;4.024;2022-08-02T09:17:12;4.95;;;2.17;;
52274;SDS011;38228;50.940;4.024;2022-08-02T09:19:38;5.82;;;2.20;;
52274;SDS011;38228;50.940;4.024;2022-08-02T09:22:05;4.88;;;2.17;;
52274;SDS011;38228;50.940;4.024;2022-08-02T09:24:40;4.82;;;1.90;;
52274;SDS011;38228;50.940;4.024;2022-08-02T09:27:14;5.20;;;2.67;;
52274;SDS011;38228;50.940;4.024;2022-08-02T09:29:45;4.80;;;2.00;;
52274;SDS011;38228;50.940;4.024;2022-08-02T09:32:12;3.83;;;1.55;;
52274;SDS011;38228;50.940;4.024;2022-08-02T09:34:52;5.43;;;1.40;;
52274;SDS011;38228;50.940;4.024;2022-08-02T09:39:55;3.17;;;1.15;;
52274;SDS011;38228;50.940;4.024;2022-08-02T09:42:24;2.13;;;1.40;;
52274;SDS011;38228;50.940;4.024;2022-08-02T09:47:19;5.93;;;1.42;;
52274;SDS011;38228;50.940;4.024;2022-08-02T09:49:45;3.97;;;1.30;;
52274;SDS011;38228;50.940;4.024;2022-08-02T09:52:11;4.97;;;1.27;;
52274;SDS011;38228;50.940;4.024;2022-08-02T09:54:38;2.22;;;0.98;;
52274;SDS011;38228;50.940;4.024;2022-08-02T09:57:05;1.60;;;1.10;;
52274;SDS011;38228;50.940;4.024;2022-08-02T09:59:32;4.40;;;1.30;;
52274;SDS011;38228;50.940;4.024;2022-08-02T10:01:59;2.55;;;1.30;;
52274;SDS011;38228;50.940;4.024;2022-08-02T10:04:27;2.33;;;0.85;;
52274;SDS011;38228;50.940;4.024;2022-08-02T10:06:54;2.03;;;1.20;;
52274;SDS011;38228;50.940;4.024;2022-08-02T10:09:20;4.25;;;0.90;;
52274;SDS011;38228;50.940;4.024;2022-08-02T10:11:47;1.63;;;1.10;;
52274;SDS011;38228;50.940;4.024;2022-08-02T10:14:13;3.80;;;1.20;;
52274;SDS011;38228;50.940;4.024;2022-08-02T10:16:39;2.85;;;1.13;;
52274;SDS011;38228;50.940;4.024;2022-08-02T10:19:06;2.95;;;1.40;;
52274;SDS011;38228;50.940;4.024;2022-08-02T10:21:43;2.80;;;1.30;;
52274;SDS011;38228;50.940;4.024;2022-08-02T10:24:18;4.10;;;0.90;;
52274;SDS011;38228;50.940;4.024;2022-08-02T10:26:47;2.80;;;1.10;;
52274;SDS011;38228;50.940;4.024;2022-08-02T10:29:17;1.92;;;1.23;;
52274;SDS011;38228;50.940;4.024;2022-08-02T10:31:52;4.32;;;1.30;;
52274;SDS011;38228;50.940;4.024;2022-08-02T10:34:26;3.67;;;1.27;;
52274;SDS011;38228;50.940;4.024;2022-08-02T10:36:57;2.25;;;1.10;;
52274;SDS011;38228;50.940;4.024;2022-08-02T10:39:27;5.75;;;1.20;;
52274;SDS011;38228;50.940;4.024;2022-08-02T10:42:01;3.65;;;1.10;;
52274;SDS011;38228;50.940;4.024;2022-08-02T10:44:31;3.53;;;1.13;;
52274;SDS011;38228;50.940;4.024;2022-08-02T10:49:51;14.57;;;1.50;;
52274;SDS011;38228;50.940;4.024;2022-08-02T10:52:18;3.00;;;1.30;;
52274;SDS011;38228;50.940;4.024;2022-08-02T10:55:02;2.03;;;1.10;;
52274;SDS011;38228;50.940;4.024;2022-08-02T10:57:34;4.78;;;1.13;;
52274;SDS011;38228;50.940;4.024;2022-08-02T11:00:01;3.72;;;1.17;;
52274;SDS011;38228;50.940;4.024;2022-08-02T11:02:38;1.55;;;0.80;;
52274;SDS011;38228;50.940;4.024;2022-08-02T11:05:09;5.05;;;0.90;;
52274;SDS011;38228;50.940;4.024;2022-08-02T11:07:40;3.17;;;0.95;;
52274;SDS011;38228;50.940;4.024;2022-08-02T11:13:11;5.82;;;1.25;;
52274;SDS011;38228;50.940;4.024;2022-08-02T11:21:28;2.05;;;1.00;;
52274;SDS011;38228;50.940;4.024;2022-08-02T11:26:51;2.08;;;1.00;;
52274;SDS011;38228;50.940;4.024;2022-08-02T11:29:17;4.70;;;1.10;;
52274;SDS011;38228;50.940;4.024;2022-08-02T11:31:44;0.93;;;0.80;;
52274;SDS011;38228;50.940;4.024;2022-08-02T11:34:10;1.80;;;1.02;;
52274;SDS011;38228;50.940;4.024;2022-08-02T11:36:43;3.75;;;1.00;;
52274;SDS011;38228;50.940;4.024;2022-08-02T11:39:13;3.55;;;1.00;;
52274;SDS011;38228;50.940;4.024;2022-08-02T11:41:40;3.90;;;1.27;;
52274;SDS011;38228;50.940;4.024;2022-08-02T11:44:07;4.35;;;0.80;;
52274;SDS011;38228;50.940;4.024;2022-08-02T11:46:33;1.33;;;0.73;;
52274;SDS011;38228;50.940;4.024;2022-08-02T11:49:12;1.30;;;0.80;;
52274;SDS011;38228;50.940;4.024;2022-08-02T11:51:49;2.63;;;0.80;;
52274;SDS011;38228;50.940;4.024;2022-08-02T11:54:22;3.63;;;1.10;;
52274;SDS011;38228;50.940;4.024;2022-08-02T11:57:07;3.80;;;1.02;;
52274;SDS011;38228;50.940;4.024;2022-08-02T11:59:44;3.67;;;0.88;;
52274;SDS011;38228;50.940;4.024;2022-08-02T12:02:12;3.08;;;1.13;;
52274;SDS011;38228;50.940;4.024;2022-08-02T12:04:39;3.53;;;1.00;;
52274;SDS011;38228;50.940;4.024;2022-08-02T12:07:05;3.10;;;1.10;;
52274;SDS011;38228;50.940;4.024;2022-08-02T12:09:32;6.13;;;1.10;;
52274;SDS011;38228;50.940;4.024;2022-08-02T12:12:00;3.53;;;0.85;;
52274;SDS011;38228;50.940;4.024;2022-08-02T12:14:26;2.90;;;1.08;;
52274;SDS011;38228;50.940;4.024;2022-08-02T12:16:54;2.42;;;1.05;;
52274;SDS011;38228;50.940;4.024;2022-08-02T12:19:39;1.92;;;1.00;;
52274;SDS011;38228;50.940;4.024;2022-08-02T12:22:12;2.15;;;0.90;;
52274;SDS011;38228;50.940;4.024;2022-08-02T12:24:49;3.65;;;0.95;;
52274;SDS011;38228;50.940;4.024;2022-08-02T12:27:33;4.97;;;0.77;;
52274;SDS011;38228;50.940;4.024;2022-08-02T12:30:22;4.80;;;0.70;;
52274;SDS011;38228;50.940;4.024;2022-08-02T12:32:48;2.63;;;0.70;;
52274;SDS011;38228;50.940;4.024;2022-08-02T12:35:17;1.52;;;0.70;;
52274;SDS011;38228;50.940;4.024;2022-08-02T12:37:46;8.10;;;0.93;;
52274;SDS011;38228;50.940;4.024;2022-08-02T12:40:28;4.68;;;0.80;;
52274;SDS011;38228;50.940;4.024;2022-08-02T12:42:59;2.17;;;0.85;;
52274;SDS011;38228;50.940;4.024;2022-08-02T12:45:27;2.72;;;0.88;;
52274;SDS011;38228;50.940;4.024;2022-08-02T12:48:08;2.47;;;0.70;;
52274;SDS011;38228;50.940;4.024;2022-08-02T12:50:34;2.88;;;0.82;;
52274;SDS011;38228;50.940;4.024;2022-08-02T12:53:15;4.82;;;1.10;;
52274;SDS011;38228;50.940;4.024;2022-08-02T12:55:49;5.57;;;0.98;;
52274;SDS011;38228;50.940;4.024;2022-08-02T12:58:17;3.05;;;0.80;;
52274;SDS011;38228;50.940;4.024;2022-08-02T13:00:43;2.42;;;0.88;;
52274;SDS011;38228;50.940;4.024;2022-08-02T13:03:19;3.70;;;0.77;;
52274;SDS011;38228;50.940;4.024;2022-08-02T13:05:46;2.85;;;0.73;;
52274;SDS011;38228;50.940;4.024;2022-08-02T13:08:12;1.58;;;0.80;;
52274;SDS011;38228;50.940;4.024;2022-08-02T13:10:38;3.35;;;0.70;;
52274;SDS011;38228;50.940;4.024;2022-08-02T13:13:04;3.72;;;0.80;;
52274;SDS011;38228;50.940;4.024;2022-08-02T13:15:30;1.70;;;0.80;;
52274;SDS011;38228;50.940;4.024;2022-08-02T13:17:56;6.95;;;1.00;;
52274;SDS011;38228;50.940;4.024;2022-08-02T13:20:23;1.67;;;0.90;;
52274;SDS011;38228;50.940;4.024;2022-08-02T13:22:51;6.28;;;0.93;;
52274;SDS011;38228;50.940;4.024;2022-08-02T13:25:17;1.45;;;0.80;;
52274;SDS011;38228;50.940;4.024;2022-08-02T13:27:46;2.50;;;0.73;;
52274;SDS011;38228;50.940;4.024;2022-08-02T13:30:16;3.63;;;0.80;;
52274;SDS011;38228;50.940;4.024;2022-08-02T13:32:42;1.90;;;0.98;;
52274;SDS011;38228;50.940;4.024;2022-08-02T13:35:08;2.05;;;0.88;;
52274;SDS011;38228;50.940;4.024;2022-08-02T13:37:34;3.95;;;0.90;;
52274;SDS011;38228;50.940;4.024;2022-08-02T13:40:00;4.95;;;0.98;;
52274;SDS011;38228;50.940;4.024;2022-08-02T13:42:26;1.75;;;0.88;;
52274;SDS011;38228;50.940;4.024;2022-08-02T13:44:52;3.80;;;0.90;;
52274;SDS011;38228;50.940;4.024;2022-08-02T13:47:18;3.88;;;0.90;;
52274;SDS011;38228;50.940;4.024;2022-08-02T13:49:44;1.60;;;0.90;;
52274;SDS011;38228;50.940;4.024;2022-08-02T13:52:09;2.47;;;0.60;;
52274;SDS011;38228;50.940;4.024;2022-08-02T13:54:35;2.63;;;0.85;;
52274;SDS011;38228;50.940;4.024;2022-08-02T13:57:01;2.20;;;1.00;;
52274;SDS011;38228;50.940;4.024;2022-08-02T13:59:27;3.50;;;1.15;;
52274;SDS011;38228;50.940;4.024;2022-08-02T14:01:53;5.78;;;0.93;;
52274;SDS011;38228;50.940;4.024;2022-08-02T14:04:20;3.70;;;0.77;;
52274;SDS011;38228;50.940;4.024;2022-08-02T14:06:47;6.85;;;0.93;;
52274;SDS011;38228;50.940;4.024;2022-08-02T14:09:13;4.38;;;0.90;;
52274;SDS011;38228;50.940;4.024;2022-08-02T14:11:38;6.25;;;1.10;;
52274;SDS011;38228;50.940;4.024;2022-08-02T14:14:04;8.27;;;0.93;;
52274;SDS011;38228;50.940;4.024;2022-08-02T14:16:30;3.08;;;0.85;;
52274;SDS011;38228;50.940;4.024;2022-08-02T14:18:55;4.63;;;1.10;;
52274;SDS011;38228;50.940;4.024;2022-08-02T14:21:21;3.80;;;1.35;;
52274;SDS011;38228;50.940;4.024;2022-08-02T14:23:47;2.20;;;1.02;;
52274;SDS011;38228;50.940;4.024;2022-08-02T14:26:13;2.45;;;0.95;;
52274;SDS011;38228;50.940;4.024;2022-08-02T14:28:39;4.18;;;0.95;;
52274;SDS011;38228;50.940;4.024;2022-08-02T14:31:05;3.83;;;0.98;;
52274;SDS011;38228;50.940;4.024;2022-08-02T14:33:30;1.35;;;0.70;;
52274;SDS011;38228;50.940;4.024;2022-08-02T14:35:56;3.17;;;0.70;;
52274;SDS011;38228;50.940;4.024;2022-08-02T14:38:22;3.97;;;0.80;;
52274;SDS011;38228;50.940;4.024;2022-08-02T14:40:48;2.88;;;0.80;;
52274;SDS011;38228;50.940;4.024;2022-08-02T14:43:14;4.85;;;0.90;;
52274;SDS011;38228;50.940;4.024;2022-08-02T14:46:00;4.82;;;1.10;;
52274;SDS011;38228;50.940;4.024;2022-08-02T14:48:27;2.90;;;0.90;;
52274;SDS011;38228;50.940;4.024;2022-08-02T14:50:53;3.63;;;0.90;;
52274;SDS011;38228;50.940;4.024;2022-08-02T14:53:19;4.22;;;1.10;;
52274;SDS011;38228;50.940;4.024;2022-08-02T14:55:45;5.90;;;0.98;;
52274;SDS011;38228;50.940;4.024;2022-08-02T14:58:10;2.70;;;1.00;;
52274;SDS011;38228;50.940;4.024;2022-08-02T15:00:36;2.70;;;0.60;;
52274;SDS011;38228;50.940;4.024;2022-08-02T15:03:03;1.30;;;0.70;;
52274;SDS011;38228;50.940;4.024;2022-08-02T15:05:29;7.55;;;1.10;;
52274;SDS011;38228;50.940;4.024;2022-08-02T15:07:54;4.50;;;0.85;;
52274;SDS011;38228;50.940;4.024;2022-08-02T15:10:20;5.20;;;1.00;;
52274;SDS011;38228;50.940;4.024;2022-08-02T15:12:46;5.78;;;0.95;;
52274;SDS011;38228;50.940;4.024;2022-08-02T15:15:11;2.88;;;1.00;;
52274;SDS011;38228;50.940;4.024;2022-08-02T15:17:37;3.08;;;0.90;;
52274;SDS011;38228;50.940;4.024;2022-08-02T15:20:03;6.35;;;1.05;;
52274;SDS011;38228;50.940;4.024;2022-08-02T15:22:29;5.25;;;0.90;;
52274;SDS011;38228;50.940;4.024;2022-08-02T15:24:55;5.90;;;0.85;;
52274;SDS011;38228;50.940;4.024;2022-08-02T15:27:21;2.95;;;0.73;;
52274;SDS011;38228;50.940;4.024;2022-08-02T15:29:47;4.97;;;1.02;;
52274;SDS011;38228;50.940;4.024;2022-08-02T15:32:13;6.82;;;1.40;;
52274;SDS011;38228;50.940;4.024;2022-08-02T15:34:42;5.25;;;0.85;;